createdAt,value
2023-05-25T00:02:04.794Z,13.31
2023-05-25T00:04:37.213Z,13.29
2023-05-25T00:07:05.844Z,13.27
2023-05-25T00:09:35.207Z,13.25
2023-05-25T00:12:03.685Z,13.25
2023-05-25T00:14:32.026Z,13.23
2023-05-25T00:17:04.156Z,13.21
2023-05-25T00:19:34.037Z,13.18
2023-05-25T00:22:02.505Z,13.17
2023-05-25T00:24:31.198Z,13.16
2023-05-25T00:26:59.613Z,13.14
2023-05-25T00:29:28.141Z,13.12
2023-05-25T00:31:56.626Z,13.11
2023-05-25T00:34:25.140Z,13.10
2023-05-25T00:36:54.762Z,13.10
2023-05-25T00:39:23.096Z,13.09
2023-05-25T00:41:51.488Z,13.08
2023-05-25T00:44:22.120Z,13.08
2023-05-25T00:46:52.729Z,13.07
2023-05-25T00:49:25.185Z,13.04
2023-05-25T00:51:53.635Z,13.02
2023-05-25T00:54:22.726Z,13.02
2023-05-25T00:57:04.626Z,13.02
2023-05-25T00:59:37.136Z,13.01
2023-05-25T01:02:12.051Z,13.01
2023-05-25T01:04:47.427Z,13.01
2023-05-25T01:07:22.668Z,12.99
2023-05-25T01:09:58.970Z,12.99
2023-05-25T01:12:29.608Z,12.99
2023-05-25T01:15:00.029Z,13.00
2023-05-25T01:17:29.245Z,13.00
2023-05-25T01:20:09.851Z,12.99
2023-05-25T01:23:14.242Z,12.99
2023-05-25T01:25:54.216Z,12.98
2023-05-25T01:28:35.995Z,12.98
2023-05-25T01:31:04.746Z,12.97
2023-05-25T01:33:35.983Z,12.96
2023-05-25T01:36:05.100Z,12.94
2023-05-25T01:38:34.783Z,12.94
2023-05-25T01:41:04.789Z,12.93
2023-05-25T01:43:33.090Z,12.93
2023-05-25T01:46:28.834Z,12.92
2023-05-25T01:49:16.810Z,12.91
2023-05-25T01:51:55.867Z,12.90
2023-05-25T01:54:34.371Z,12.88
2023-05-25T01:57:12.899Z,12.86
2023-05-25T01:59:44.208Z,12.84
2023-05-25T02:02:18.961Z,12.82
2023-05-25T02:04:47.666Z,12.80
2023-05-25T02:07:17.336Z,12.78
2023-05-25T02:09:45.999Z,12.78
2023-05-25T02:12:14.352Z,12.76
2023-05-25T02:14:42.952Z,12.73
2023-05-25T02:17:12.942Z,12.71
2023-05-25T02:19:41.312Z,12.68
2023-05-25T02:22:09.689Z,12.66
2023-05-25T02:24:38.230Z,12.65
2023-05-25T02:27:07.008Z,12.64
2023-05-25T02:29:35.851Z,12.62
2023-05-25T02:32:04.468Z,12.61
2023-05-25T02:34:33.053Z,12.59
2023-05-25T02:37:02.093Z,12.58
2023-05-25T02:39:30.489Z,12.56
2023-05-25T02:41:59.584Z,12.54
2023-05-25T02:44:28.100Z,12.53
2023-05-25T02:46:56.421Z,12.49
2023-05-25T02:49:25.039Z,12.46
2023-05-25T02:51:54.459Z,12.44
2023-05-25T02:54:22.874Z,12.43
2023-05-25T02:56:51.317Z,12.39
2023-05-25T02:59:19.844Z,12.35
2023-05-25T03:01:48.316Z,12.31
2023-05-25T03:04:18.242Z,12.27
2023-05-25T03:06:46.629Z,12.25
2023-05-25T03:09:18.557Z,12.25
2023-05-25T03:11:48.677Z,12.27
2023-05-25T03:14:18.560Z,12.27
2023-05-25T03:16:54.130Z,12.28
2023-05-25T03:19:23.339Z,12.29
2023-05-25T03:21:51.974Z,12.30
2023-05-25T03:24:20.733Z,12.33
2023-05-25T03:26:49.697Z,12.35
2023-05-25T03:29:18.729Z,12.38
2023-05-25T03:31:47.793Z,12.40
2023-05-25T03:34:16.657Z,12.42
2023-05-25T03:36:47.727Z,12.44
2023-05-25T03:39:17.043Z,12.46
2023-05-25T03:41:45.512Z,12.48
2023-05-25T03:44:14.982Z,12.51
2023-05-25T03:46:43.829Z,12.53
2023-05-25T03:49:14.436Z,12.55
2023-05-25T03:51:43.369Z,12.55
2023-05-25T03:54:12.101Z,12.55
2023-05-25T03:56:40.530Z,12.56
2023-05-25T03:59:08.983Z,12.57
2023-05-25T04:01:39.081Z,12.60
2023-05-25T04:04:07.920Z,12.60
2023-05-25T04:06:38.337Z,12.62
2023-05-25T04:09:08.101Z,12.63
2023-05-25T04:11:36.424Z,12.63
2023-05-25T04:14:04.788Z,12.65
2023-05-25T04:16:36.493Z,12.67
2023-05-25T04:19:06.332Z,12.68
2023-05-25T04:21:34.899Z,12.67
2023-05-25T04:24:03.760Z,12.69
2023-05-25T04:26:32.355Z,12.71
2023-05-25T04:29:02.559Z,12.72
2023-05-25T04:31:51.668Z,12.74
2023-05-25T04:34:49.146Z,12.72
2023-05-25T04:37:27.255Z,12.71
2023-05-25T04:39:57.758Z,12.70
2023-05-25T04:42:27.096Z,12.68
2023-05-25T04:44:56.692Z,12.68
2023-05-25T04:47:26.185Z,12.68
2023-05-25T04:49:56.128Z,12.68
2023-05-25T04:52:24.610Z,12.69
2023-05-25T04:54:54.854Z,12.68
2023-05-25T04:57:23.395Z,12.69
2023-05-25T04:59:53.237Z,12.69
2023-05-25T05:02:21.781Z,12.69
2023-05-25T05:04:54.036Z,12.71
2023-05-25T05:07:22.749Z,12.74
2023-05-25T05:09:51.528Z,12.76
2023-05-25T05:12:20.087Z,12.77
2023-05-25T05:14:52.411Z,12.79
2023-05-25T05:17:21.626Z,12.80
2023-05-25T05:19:52.794Z,12.82
2023-05-25T05:22:21.854Z,12.82
2023-05-25T05:24:50.246Z,12.81
2023-05-25T05:27:29.388Z,12.79
2023-05-25T05:30:06.429Z,12.77
2023-05-25T05:32:37.901Z,12.74
2023-05-25T05:35:07.876Z,12.74
2023-05-25T05:37:44.115Z,12.76
2023-05-25T05:40:13.008Z,12.77
2023-05-25T05:42:43.418Z,12.81
2023-05-25T05:45:12.318Z,12.87
2023-05-25T05:47:40.797Z,12.90
2023-05-25T05:50:10.160Z,12.98
2023-05-25T05:52:41.805Z,13.06
2023-05-25T05:55:11.958Z,13.14
2023-05-25T05:57:41.985Z,13.23
2023-05-25T06:00:11.282Z,13.31
2023-05-25T06:02:51.633Z,13.36
2023-05-25T06:05:23.554Z,13.40
2023-05-25T06:07:54.010Z,13.49
2023-05-25T06:10:22.917Z,13.58
2023-05-25T06:12:52.168Z,13.64
2023-05-25T06:15:20.764Z,13.70
2023-05-25T06:17:49.981Z,13.75
2023-05-25T06:20:18.893Z,13.80
2023-05-25T06:22:47.692Z,13.83
2023-05-25T06:25:16.966Z,13.85
2023-05-25T06:27:46.638Z,13.87
2023-05-25T06:30:15.369Z,13.91
2023-05-25T06:32:44.128Z,13.90
2023-05-25T06:35:20.040Z,13.85
2023-05-25T06:37:53.160Z,13.89
2023-05-25T06:40:22.077Z,13.95
2023-05-25T06:42:50.657Z,14.00
2023-05-25T06:45:37.664Z,14.04
2023-05-25T06:48:06.723Z,14.09
2023-05-25T06:50:35.209Z,14.10
2023-05-25T06:53:04.485Z,14.16
2023-05-25T06:55:33.018Z,14.23
2023-05-25T06:58:01.943Z,14.26
2023-05-25T07:00:30.578Z,14.27
2023-05-25T07:03:00.219Z,14.28
2023-05-25T07:05:29.276Z,14.27
2023-05-25T07:07:57.787Z,14.23
2023-05-25T07:10:26.382Z,14.17
2023-05-25T07:12:59.910Z,14.13
2023-05-25T07:15:28.436Z,14.10
2023-05-25T07:17:57.462Z,14.10
2023-05-25T07:20:27.236Z,14.11
2023-05-25T07:22:55.891Z,14.08
2023-05-25T07:25:24.328Z,14.02
2023-05-25T07:27:55.453Z,14.02
2023-05-25T07:30:24.119Z,14.06
2023-05-25T07:32:52.902Z,14.14
2023-05-25T07:35:21.342Z,14.16
2023-05-25T07:38:00.566Z,14.17
2023-05-25T07:40:30.808Z,14.22
2023-05-25T07:42:59.505Z,14.24
2023-05-25T07:45:28.040Z,14.26
2023-05-25T07:47:58.999Z,14.26
2023-05-25T07:50:27.691Z,14.27
2023-05-25T07:52:58.620Z,14.31
2023-05-25T07:55:29.392Z,14.37
2023-05-25T07:57:57.736Z,14.49
2023-05-25T08:00:26.156Z,14.69
2023-05-25T08:02:56.918Z,14.86
2023-05-25T08:05:31.861Z,15.06
2023-05-25T08:08:00.511Z,15.17
2023-05-25T08:10:32.281Z,15.18
2023-05-25T08:13:00.877Z,15.18
2023-05-25T08:15:29.204Z,15.14
2023-05-25T08:17:57.747Z,15.15
2023-05-25T08:20:26.473Z,15.13
2023-05-25T08:22:55.026Z,15.15
2023-05-25T08:25:23.372Z,15.17
2023-05-25T08:27:51.796Z,15.20
2023-05-25T08:30:20.154Z,15.23
2023-05-25T08:32:48.540Z,15.23
2023-05-25T08:35:17.526Z,15.32
2023-05-25T08:37:46.809Z,15.43
2023-05-25T08:40:16.736Z,15.55
2023-05-25T08:42:46.612Z,15.63
2023-05-25T08:45:30.440Z,15.74
2023-05-25T08:48:04.561Z,15.89
2023-05-25T08:50:34.501Z,15.97
2023-05-25T08:53:05.203Z,16.05
2023-05-25T08:55:37.631Z,16.09
2023-05-25T08:58:14.561Z,16.11
2023-05-25T09:00:54.914Z,16.10
2023-05-25T09:03:24.619Z,16.10
2023-05-25T09:05:55.185Z,16.12
2023-05-25T09:08:26.435Z,16.10
2023-05-25T09:10:57.028Z,16.07
2023-05-25T09:13:26.383Z,16.09
2023-05-25T09:15:56.358Z,16.13
2023-05-25T09:18:24.983Z,16.18
2023-05-25T09:20:55.505Z,16.28
2023-05-25T09:23:24.309Z,16.35
2023-05-25T09:25:54.154Z,16.31
2023-05-25T09:28:26.745Z,16.33
2023-05-25T09:31:00.708Z,16.29
2023-05-25T09:33:29.074Z,16.24
2023-05-25T09:35:57.549Z,16.17
2023-05-25T09:38:26.242Z,16.18
2023-05-25T09:40:54.776Z,16.13
2023-05-25T09:43:36.434Z,16.18
2023-05-25T09:46:10.159Z,16.45
2023-05-25T09:48:38.750Z,16.70
2023-05-25T09:51:08.971Z,16.76
2023-05-25T09:53:37.828Z,16.82
2023-05-25T09:56:06.517Z,16.92
2023-05-25T09:58:35.385Z,17.08
2023-05-25T10:01:04.807Z,17.21
2023-05-25T10:03:33.240Z,17.28
2023-05-25T10:06:03.248Z,17.39
2023-05-25T10:08:32.248Z,17.32
2023-05-25T10:11:01.348Z,17.38
2023-05-25T10:13:32.585Z,17.58
2023-05-25T10:16:02.546Z,17.80
2023-05-25T10:18:34.213Z,18.01
2023-05-25T10:21:05.464Z,18.20
2023-05-25T10:23:44.298Z,18.34
2023-05-25T10:26:17.202Z,18.45
2023-05-25T10:28:48.015Z,18.48
2023-05-25T10:31:26.853Z,18.53
2023-05-25T10:33:56.383Z,18.58
2023-05-25T10:36:26.624Z,18.51
2023-05-25T10:39:01.126Z,18.27
2023-05-25T10:41:45.565Z,18.19
2023-05-25T10:44:15.476Z,18.16
2023-05-25T10:46:44.371Z,18.15
2023-05-25T10:49:49.052Z,18.16
2023-05-25T10:52:22.660Z,18.19
2023-05-25T10:55:04.889Z,18.22
2023-05-25T10:57:37.259Z,18.27
2023-05-25T11:00:21.254Z,18.32
2023-05-25T11:02:58.159Z,18.32
2023-05-25T11:05:50.667Z,18.28
2023-05-25T11:08:23.641Z,18.24
2023-05-25T11:11:02.626Z,18.25
2023-05-25T11:13:41.366Z,18.30
2023-05-25T11:16:35.673Z,18.29
2023-05-25T11:19:21.364Z,18.19
2023-05-25T11:22:25.371Z,18.05
2023-05-25T11:25:05.094Z,18.00
2023-05-25T11:27:51.080Z,18.04
2023-05-25T11:30:37.240Z,18.13
2023-05-25T11:33:27.134Z,18.28
2023-05-25T11:35:59.232Z,18.42
2023-05-25T11:38:35.478Z,18.52
2023-05-25T11:41:19.145Z,18.61
2023-05-25T11:43:59.682Z,18.61
2023-05-25T11:46:38.819Z,18.47
2023-05-25T11:49:07.670Z,18.41
2023-05-25T11:51:38.013Z,18.32
2023-05-25T11:54:06.876Z,18.29
2023-05-25T11:56:36.420Z,18.37
2023-05-25T11:59:08.254Z,18.47
2023-05-25T12:01:36.711Z,18.56
2023-05-25T12:04:09.858Z,18.59
2023-05-25T12:06:38.339Z,18.60
2023-05-25T12:09:13.119Z,18.62
2023-05-25T12:11:45.819Z,18.54
2023-05-25T12:14:14.767Z,18.37
2023-05-25T12:16:43.693Z,18.17
2023-05-25T12:19:12.933Z,18.17
2023-05-25T12:21:42.040Z,18.18
2023-05-25T12:24:14.443Z,18.21
2023-05-25T12:27:02.004Z,18.24
2023-05-25T12:29:30.450Z,18.26
2023-05-25T12:32:06.933Z,18.27
2023-05-25T12:34:35.496Z,18.26
2023-05-25T12:37:03.965Z,18.16
2023-05-25T12:39:39.095Z,18.03
2023-05-25T12:42:15.282Z,17.95
2023-05-25T12:44:46.763Z,17.88
2023-05-25T12:47:20.980Z,17.90
2023-05-25T12:49:53.753Z,17.85
2023-05-25T12:52:33.840Z,17.89
2023-05-25T12:55:21.026Z,17.93
2023-05-25T12:57:55.736Z,17.94
2023-05-25T13:00:26.659Z,17.88
2023-05-25T13:02:55.066Z,17.79
2023-05-25T13:05:24.928Z,17.66
2023-05-25T13:07:55.013Z,17.62
2023-05-25T13:10:24.452Z,17.71
2023-05-25T13:12:54.112Z,17.82
2023-05-25T13:15:22.670Z,17.91
2023-05-25T13:17:52.711Z,17.97
2023-05-25T13:20:23.305Z,18.02
2023-05-25T13:22:53.464Z,17.98
2023-05-25T13:25:22.678Z,17.87
2023-05-25T13:27:52.790Z,17.78
2023-05-25T13:30:22.190Z,17.80
2023-05-25T13:32:52.505Z,17.83
2023-05-25T13:35:37.909Z,17.74
2023-05-25T13:38:06.738Z,17.70
2023-05-25T13:40:35.132Z,17.69
2023-05-25T13:43:03.424Z,17.70
2023-05-25T13:45:31.846Z,17.70
2023-05-25T13:48:00.422Z,17.59
2023-05-25T13:50:28.931Z,17.54
2023-05-25T13:52:57.193Z,17.53
2023-05-25T13:55:25.697Z,17.52
2023-05-25T13:57:55.105Z,17.43
2023-05-25T14:00:23.629Z,17.33
2023-05-25T14:02:52.010Z,17.28
2023-05-25T14:05:20.514Z,17.25
2023-05-25T14:07:49.246Z,17.24
2023-05-25T14:10:18.082Z,17.25
2023-05-25T14:12:46.543Z,17.26
2023-05-25T14:15:14.946Z,17.28
2023-05-25T14:17:43.289Z,17.28
2023-05-25T14:20:16.059Z,17.30
2023-05-25T14:22:44.542Z,17.29
2023-05-25T14:25:12.868Z,17.19
2023-05-25T14:27:41.097Z,17.10
2023-05-25T14:30:10.954Z,17.06
2023-05-25T14:32:39.317Z,17.02
2023-05-25T14:35:08.052Z,16.96
2023-05-25T14:37:36.440Z,16.94
2023-05-25T14:40:05.181Z,16.93
2023-05-25T14:42:33.525Z,16.97
2023-05-25T14:45:01.986Z,17.03
2023-05-25T14:47:30.611Z,17.07
2023-05-25T14:49:58.827Z,17.10
2023-05-25T14:52:27.442Z,17.10
2023-05-25T14:54:55.830Z,17.13
2023-05-25T14:57:24.103Z,17.17
2023-05-25T14:59:52.477Z,17.20
2023-05-25T15:02:20.768Z,17.21
2023-05-25T15:04:49.170Z,17.25
2023-05-25T15:07:17.583Z,17.25
2023-05-25T15:09:45.916Z,17.26
2023-05-25T15:12:14.950Z,17.27
2023-05-25T15:14:43.449Z,17.26
2023-05-25T15:17:11.759Z,17.25
2023-05-25T15:19:40.494Z,17.23
2023-05-25T15:22:09.027Z,17.20
2023-05-25T15:24:37.588Z,17.20
2023-05-25T15:27:06.604Z,17.20
2023-05-25T15:29:34.997Z,17.19
2023-05-25T15:32:03.549Z,17.18
2023-05-25T15:34:32.051Z,17.16
2023-05-25T15:37:00.607Z,17.10
2023-05-25T15:39:28.844Z,17.06
2023-05-25T15:41:57.160Z,17.03
2023-05-25T15:44:25.477Z,17.00
2023-05-25T15:46:54.014Z,16.93
2023-05-25T15:49:22.414Z,16.89
2023-05-25T15:51:53.308Z,16.87
2023-05-25T15:54:21.680Z,16.87
2023-05-25T15:56:49.949Z,16.85
2023-05-25T15:59:18.613Z,16.84
2023-05-25T16:01:46.972Z,16.83
2023-05-25T16:04:15.454Z,16.82
2023-05-25T16:06:44.010Z,16.76
2023-05-25T16:09:12.446Z,16.70
2023-05-25T16:11:40.697Z,16.65
2023-05-25T16:14:09.190Z,16.60
2023-05-25T16:16:37.653Z,16.59
2023-05-25T16:19:06.157Z,16.59
2023-05-25T16:21:37.812Z,16.55
2023-05-25T16:24:07.317Z,16.54
2023-05-25T16:26:35.842Z,16.54
2023-05-25T16:29:04.242Z,16.53
2023-05-25T16:31:32.695Z,16.52
2023-05-25T16:34:03.055Z,16.49
2023-05-25T16:36:31.662Z,16.46
2023-05-25T16:39:00.174Z,16.43
2023-05-25T16:41:28.801Z,16.40
2023-05-25T16:43:57.242Z,16.38
2023-05-25T16:46:25.958Z,16.36
2023-05-25T16:48:54.513Z,16.34
2023-05-25T16:51:23.461Z,16.31
2023-05-25T16:53:53.708Z,16.27
2023-05-25T16:56:24.791Z,16.23
2023-05-25T16:58:53.199Z,16.18
2023-05-25T17:01:22.127Z,16.15
2023-05-25T17:03:50.924Z,16.11
2023-05-25T17:06:19.502Z,16.09
2023-05-25T17:08:47.730Z,16.06
2023-05-25T17:11:16.168Z,16.01
2023-05-25T17:13:44.551Z,15.96
2023-05-25T17:16:13.260Z,15.94
2023-05-25T17:18:41.896Z,15.91
2023-05-25T17:21:10.532Z,15.88
2023-05-25T17:23:39.056Z,15.85
2023-05-25T17:26:07.414Z,15.83
2023-05-25T17:28:36.326Z,15.81
2023-05-25T17:31:05.099Z,15.78
2023-05-25T17:33:33.488Z,15.74
2023-05-25T17:36:01.753Z,15.71
2023-05-25T17:38:30.222Z,15.68
2023-05-25T17:41:00.834Z,15.64
2023-05-25T17:43:32.173Z,15.61
2023-05-25T17:46:00.860Z,15.56
2023-05-25T17:48:29.460Z,15.51
2023-05-25T17:50:57.787Z,15.47
2023-05-25T17:53:26.932Z,15.43
2023-05-25T17:56:03.033Z,15.38
2023-05-25T17:58:31.678Z,15.35
2023-05-25T18:01:00.282Z,15.30
2023-05-25T18:03:29.115Z,15.28
2023-05-25T18:05:57.886Z,15.26
2023-05-25T18:08:26.314Z,15.23
2023-05-25T18:10:57.050Z,15.20
2023-05-25T18:13:32.756Z,15.16
2023-05-25T18:16:05.218Z,15.13
2023-05-25T18:18:42.456Z,15.10
2023-05-25T18:21:27.025Z,15.06
2023-05-25T18:24:01.627Z,15.00
2023-05-25T18:26:32.919Z,14.95
2023-05-25T18:29:08.492Z,14.91
2023-05-25T18:31:37.158Z,14.88
2023-05-25T18:34:07.975Z,14.84
2023-05-25T18:36:36.874Z,14.82
2023-05-25T18:39:11.478Z,14.79
2023-05-25T18:41:48.412Z,14.78
2023-05-25T18:44:30.176Z,14.75
2023-05-25T18:47:02.798Z,14.74
2023-05-25T18:49:34.472Z,14.72
2023-05-25T18:52:03.926Z,14.69
2023-05-25T18:54:33.325Z,14.67
2023-05-25T18:57:03.683Z,14.64
2023-05-25T18:59:36.147Z,14.61
2023-05-25T19:02:04.689Z,14.57
2023-05-25T19:04:33.577Z,14.54
2023-05-25T19:07:02.189Z,14.52
2023-05-25T19:09:30.721Z,14.47
2023-05-25T19:11:59.165Z,14.44
2023-05-25T19:14:27.800Z,14.42
2023-05-25T19:16:57.188Z,14.39
2023-05-25T19:19:25.691Z,14.37
2023-05-25T19:21:57.240Z,14.36
2023-05-25T19:24:25.889Z,14.34
2023-05-25T19:26:56.979Z,14.34
2023-05-25T19:29:26.031Z,14.33
2023-05-25T19:31:54.591Z,14.32
2023-05-25T19:34:23.120Z,14.32
2023-05-25T19:36:59.674Z,14.32
2023-05-25T19:39:32.439Z,14.31
2023-05-25T19:42:02.016Z,14.30
2023-05-25T19:44:31.932Z,14.30
2023-05-25T19:47:00.862Z,14.30
2023-05-25T19:49:29.371Z,14.28
2023-05-25T19:51:57.829Z,14.27
2023-05-25T19:54:26.346Z,14.27
2023-05-25T19:56:54.745Z,14.26
2023-05-25T19:59:27.871Z,14.24
2023-05-25T20:01:57.051Z,14.23
2023-05-25T20:04:25.550Z,14.23
2023-05-25T20:06:54.403Z,14.22
2023-05-25T20:09:31.453Z,14.22
2023-05-25T20:12:04.022Z,14.20
2023-05-25T20:14:34.150Z,14.20
2023-05-25T20:17:03.017Z,14.19
2023-05-25T20:19:31.390Z,14.19
2023-05-25T20:22:01.848Z,14.17
2023-05-25T20:24:30.241Z,14.16
2023-05-25T20:27:02.530Z,14.15
2023-05-25T20:29:31.143Z,14.15
2023-05-25T20:32:01.460Z,14.13
2023-05-25T20:34:30.872Z,14.11
2023-05-25T20:37:02.770Z,14.10
2023-05-25T20:39:31.226Z,14.08
2023-05-25T20:42:01.918Z,14.08
2023-05-25T20:44:32.127Z,14.07
2023-05-25T20:47:00.705Z,14.07
2023-05-25T20:49:29.551Z,14.06
2023-05-25T20:51:57.951Z,14.06
2023-05-25T20:54:26.483Z,14.04
2023-05-25T20:56:54.895Z,14.04
2023-05-25T20:59:23.611Z,14.03
2023-05-25T21:01:51.994Z,14.02
2023-05-25T21:04:22.840Z,14.02
2023-05-25T21:06:54.155Z,14.01
2023-05-25T21:09:22.820Z,13.98
2023-05-25T21:11:51.289Z,13.96
2023-05-25T21:14:19.683Z,13.95
2023-05-25T21:16:49.916Z,13.93
2023-05-25T21:19:18.561Z,13.92
2023-05-25T21:21:46.917Z,13.89
2023-05-25T21:24:15.563Z,13.87
2023-05-25T21:26:43.864Z,13.86
2023-05-25T21:29:12.203Z,13.85
2023-05-25T21:31:40.673Z,13.84
2023-05-25T21:34:09.101Z,13.83
2023-05-25T21:36:37.474Z,13.82
2023-05-25T21:39:05.810Z,13.80
2023-05-25T21:41:34.087Z,13.80
2023-05-25T21:44:02.347Z,13.78
2023-05-25T21:46:30.729Z,13.77
2023-05-25T21:48:59.051Z,13.75
2023-05-25T21:51:30.144Z,13.74
2023-05-25T21:54:02.107Z,13.71
2023-05-25T21:56:30.409Z,13.69
2023-05-25T21:58:58.816Z,13.67
2023-05-25T22:01:27.293Z,13.64
2023-05-25T22:03:55.868Z,13.60
2023-05-25T22:06:24.315Z,13.57
2023-05-25T22:08:52.699Z,13.53
2023-05-25T22:11:22.284Z,13.50
2023-05-25T22:13:51.152Z,13.47
2023-05-25T22:16:20.224Z,13.45
2023-05-25T22:18:48.659Z,13.44
2023-05-25T22:21:17.191Z,13.44
2023-05-25T22:23:46.021Z,13.43
2023-05-25T22:26:14.753Z,13.41
2023-05-25T22:28:43.120Z,13.40
2023-05-25T22:31:12.897Z,13.38
2023-05-25T22:33:41.463Z,13.37
2023-05-25T22:36:09.826Z,13.36
2023-05-25T22:38:38.136Z,13.36
2023-05-25T22:41:06.370Z,13.35
2023-05-25T22:43:34.728Z,13.35
2023-05-25T22:46:03.175Z,13.35
2023-05-25T22:48:31.808Z,13.35
2023-05-25T22:51:00.626Z,13.35
2023-05-25T22:53:28.954Z,13.35
2023-05-25T22:55:57.802Z,13.34
2023-05-25T22:58:26.133Z,13.35
2023-05-25T23:00:55.176Z,13.34
2023-05-25T23:03:23.519Z,13.35
2023-05-25T23:05:52.318Z,13.36
2023-05-25T23:08:20.618Z,13.36
2023-05-25T23:10:48.958Z,13.36
2023-05-25T23:13:19.295Z,13.37
2023-05-25T23:15:48.430Z,13.36
2023-05-25T23:18:16.738Z,13.36
2023-05-25T23:20:45.395Z,13.36
2023-05-25T23:23:13.682Z,13.35
2023-05-25T23:25:42.051Z,13.35
2023-05-25T23:28:10.406Z,13.34
2023-05-25T23:30:39.161Z,13.33
2023-05-25T23:33:08.710Z,13.31
2023-05-25T23:35:37.184Z,13.30
2023-05-25T23:38:05.675Z,13.29
2023-05-25T23:40:33.945Z,13.29
2023-05-25T23:43:02.447Z,13.29
2023-05-25T23:45:30.842Z,13.29
2023-05-25T23:47:59.441Z,13.29
2023-05-25T23:50:27.948Z,13.29
2023-05-25T23:52:56.187Z,13.29
2023-05-25T23:55:24.393Z,13.30
2023-05-25T23:57:52.714Z,13.30
